Terminal Aerodrome Forecast
Issued by NWS

Home | Current Version | Previous Version | Text Only | Print | Product List | Glossary On
Versions: 1 2 3 4 5 6 7 8 9 10 11 12 13
000
FTAK31 PAJN 250751 AAC
TAFAJN
TAF AMD
PAJN 250751Z 2508/2606 09008KT 6SM -SN BR SCT020 OVC035
      TEMPO 2508/2512 5SM -FZRA BR SCT015 OVC025
     FM251200 10008KT 2SM -SN OVC015
     FM251500 09012G20KT 3SM -SN SCT015 BKN030 OVC050 WS020/03035KT
     FM251900 30015G25KT P6SM VCSH SCT030 BKN050 WS020/03035KT
     FM260000 31010KT P6SM SCT050 SCT100=

USA.gov is the U.S. government's official web portal to all federal, state and local government web resources and services.